Time;durP1;ratioP1;P1;durP2;ratioP2;P2;SDS_P1;SDS_P2;PMS_P1;PMS_P2;Temp;Humidity;BMP_temperature;BMP_pressure;BME280_temperature;BME280_humidity;BME280_pressure;Samples;Min_cycle;Max_cycle;Signal;HPM_P1;HPM_P2
2021/07/28 01:50:40;;;;;;;;;;;;;;;;;;;;;
2021/07/28 03:30:41;;;;;;;0.55;0.55;;;;;;;15.77;94.96;92637.59;5751279;24;20036;-79
2021/07/28 03:33:07;;;;;;;0.30;0.30;;;;;;;15.82;94.89;92642.69;4843583;29;20057;-79
2021/07/28 03:35:33;;;;;;;2.20;1.23;;;;;;;15.82;94.71;92637.41;4844847;29;20057;-78
2021/07/28 03:37:58;;;;;;;0.60;0.60;;;;;;;15.76;94.81;92634.19;4860765;29;20041;-79
2021/07/28 03:40:24;;;;;;;0.60;0.55;;;;;;;15.79;95.20;92635.41;4860026;29;20044;-78
2021/07/28 03:42:50;;;;;;;1.40;0.98;;;;;;;15.86;94.52;92642.84;4844446;29;20051;-79
2021/07/28 03:45:16;;;;;;;0.90;0.57;;;;;;;15.86;93.99;92630.44;4814175;29;20044;-78
2021/07/28 03:47:41;;;;;;;0.60;0.55;;;;;;;15.88;93.71;92625.63;4825733;29;20428;-78
2021/07/28 03:50:07;;;;;;;1.17;0.70;;;;;;;15.88;93.83;92636.16;4845997;29;20572;-79
2021/07/28 03:52:33;;;;;;;0.77;0.75;;;;;;;15.95;93.76;92625.91;4842221;29;20445;-78
2021/07/28 03:54:58;;;;;;;0.50;0.50;;;;;;;16.00;93.26;92628.34;4842146;29;20121;-79
2021/07/28 03:57:24;;;;;;;0.40;0.40;;;;;;;16.00;93.47;92628.34;4843128;29;20702;-78
2021/07/28 03:59:50;;;;;;;0.50;0.40;;;;;;;15.96;93.78;92622.19;4847578;29;20413;-79
2021/07/28 04:02:15;;;;;;;3.13;0.77;;;;;;;15.96;93.73;92627.47;4844577;29;20097;-78
2021/07/28 04:04:41;;;;;;;2.05;1.50;;;;;;;15.94;93.90;92629.63;4860690;29;20069;-78
2021/07/28 04:07:11;;;;;;;0.80;0.80;;;;;;;15.94;94.21;92637.56;4860477;29;20314;-79
2021/07/28 04:09:37;;;;;;;0.60;0.60;;;;;;;15.96;94.28;92637.22;4860528;29;20136;-78
2021/07/28 04:12:04;;;;;;;0.77;0.77;;;;;;;15.94;94.45;92629.63;4844323;29;20448;-78
2021/07/28 04:14:29;;;;;;;0.40;0.40;;;;;;;15.95;94.37;92628.53;4860491;29;20622;-79
2021/07/28 04:16:55;;;;;;;1.30;0.93;;;;;;;15.92;94.60;92631.81;4861045;29;20049;-79
2021/07/28 04:19:20;;;;;;;1.25;1.10;;;;;;;15.98;94.98;92629.75;4860818;29;20502;-78
2021/07/28 04:21:46;;;;;;;9.52;1.75;;;;;;;15.99;94.14;92618.91;4861021;29;20121;-79
2021/07/28 04:24:11;;;;;;;0.50;0.50;;;;;;;16.00;94.21;92611.75;4861179;29;20056;-78
2021/07/28 04:26:37;;;;;;;1.80;1.15;;;;;;;16.08;93.80;92620.75;4861133;29;20045;-78
2021/07/28 04:29:03;;;;;;;1.15;1.08;;;;;;;16.02;93.93;92615.63;4859616;29;20082;-78
2021/07/28 04:31:28;;;;;;;0.70;0.70;;;;;;;16.02;94.44;92623.53;4848395;29;20072;-78
2021/07/28 04:33:54;;;;;;;0.88;0.73;;;;;;;16.01;94.77;92622.00;4854673;29;20057;-78
2021/07/28 04:36:19;;;;;;;1.05;0.95;;;;;;;15.99;94.81;92629.47;4836152;29;20056;-78
2021/07/28 04:38:45;;;;;;;0.35;0.35;;;;;;;16.00;94.88;92636.28;4842958;29;20458;-76
2021/07/28 04:41:11;;;;;;;5.00;1.38;;;;;;;16.01;95.10;92637.84;4846206;29;20029;-76
2021/07/28 04:43:36;;;;;;;0.75;0.73;;;;;;;16.02;95.37;92634.09;4853354;29;20049;-78
2021/07/28 04:46:03;;;;;;;0.40;0.40;;;;;;;16.07;95.39;92633.16;4825609;29;20057;-78
2021/07/28 04:48:29;;;;;;;0.82;0.82;;;;;;;16.05;95.35;92635.34;4841007;29;20033;-77
2021/07/28 04:50:57;;;;;;;0.90;0.85;;;;;;;16.09;95.59;92651.31;4841566;29;20109;-77
2021/07/28 04:53:28;;;;;;;0.80;0.63;;;;;;;16.09;95.35;92652.09;4849060;29;20105;-77
2021/07/28 04:55:58;;;;;;;1.33;0.90;;;;;;;16.10;95.60;92644.94;4859720;29;20079;-78
2021/07/28 04:58:24;;;;;;;1.70;0.90;;;;;;;16.07;95.74;92642.94;4851155;29;20052;-77
2021/07/28 05:00:51;;;;;;;1.08;0.88;;;;;;;16.10;95.40;92631.75;4853416;29;20041;-77
2021/07/28 05:03:18;;;;;;;3.83;1.23;;;;;;;16.11;95.47;92643.88;4826150;29;20093;-77
2021/07/28 05:05:44;;;;;;;1.05;0.95;;;;;;;16.11;95.59;92638.59;4857366;29;20547;-77
2021/07/28 05:08:10;;;;;;;1.85;1.35;;;;;;;16.09;95.56;92644.19;4857283;29;20041;-77
2021/07/28 05:10:36;;;;;;;0.50;0.50;;;;;;;16.10;95.30;92642.31;4856905;29;20106;-77
2021/07/28 05:13:03;;;;;;;1.20;1.02;;;;;;;16.11;95.31;92652.56;4839611;29;20064;-77
2021/07/28 05:15:29;;;;;;;1.95;1.23;;;;;;;16.13;95.26;92649.63;4857536;29;20559;-77
2021/07/28 05:17:54;;;;;;;0.77;0.73;;;;;;;16.10;94.82;92648.38;4857755;29;20116;-77
2021/07/28 05:20:20;;;;;;;2.78;2.05;;;;;;;16.15;94.50;92665.91;4857294;29;20033;-77
2021/07/28 05:22:46;;;;;;;1.48;0.93;;;;;;;16.16;94.52;92662.19;4857376;29;20049;-77
2021/07/28 05:25:13;;;;;;;1.55;0.88;;;;;;;16.16;94.53;92659.53;4857443;29;20045;-77
2021/07/28 05:27:39;;;;;;;0.65;0.60;;;;;;;16.17;95.21;92659.22;4857320;29;20480;-77
2021/07/28 05:30:05;;;;;;;0.90;0.82;;;;;;;16.18;94.82;92657.34;4854906;29;20045;-77
2021/07/28 05:32:31;;;;;;;1.38;0.90;;;;;;;16.18;95.02;92654.72;4841023;29;20061;-77
2021/07/28 05:34:57;;;;;;;1.27;1.08;;;;;;;16.19;95.01;92651.00;4857336;29;20049;-77
2021/07/28 05:37:24;;;;;;;0.60;0.60;;;;;;;16.20;95.05;92652.53;4857215;29;20048;-77
2021/07/28 05:39:50;;;;;;;0.52;0.52;;;;;;;16.18;95.10;92654.72;4857664;29;20534;-77
2021/07/28 05:42:16;;;;;;;0.45;0.45;;;;;;;16.20;95.19;92663.09;4856848;29;20052;-77
2021/07/28 05:44:42;;;;;;;0.65;0.65;;;;;;;16.19;94.95;92653.63;4857517;29;20021;-77
2021/07/28 05:47:08;;;;;;;0.95;0.90;;;;;;;16.17;94.81;92653.94;4857485;29;20080;-77
2021/07/28 05:49:34;;;;;;;0.95;0.88;;;;;;;16.17;94.76;92659.22;4859701;29;20495;-77
2021/07/28 05:52:00;;;;;;;1.40;1.30;;;;;;;16.15;94.03;92660.63;4838155;29;20037;-77
2021/07/28 05:54:26;;;;;;;1.55;1.00;;;;;;;16.18;93.62;92660.00;4840102;29;20041;-77
2021/07/28 05:56:51;;;;;;;1.38;1.02;;;;;;;16.16;93.11;92647.09;4795647;29;20483;-77
2021/07/28 05:59:17;;;;;;;0.85;0.73;;;;;;;16.24;91.99;92654.22;4842039;29;20503;-77
2021/07/28 06:01:43;;;;;;;0.70;0.70;;;;;;;16.31;91.33;92660.88;4825537;29;20046;-77
2021/07/28 06:04:09;;;;;;;1.13;1.02;;;;;;;16.23;90.98;92670.38;4841635;29;20042;-77
2021/07/28 06:06:35;;;;;;;0.65;0.60;;;;;;;16.24;91.61;92679.88;4825960;29;20417;-76
2021/07/28 06:09:00;;;;;;;6.05;1.15;;;;;;;16.19;92.22;92683.47;4841585;29;20038;-76
2021/07/28 06:11:26;;;;;;;1.30;1.08;;;;;;;16.08;93.09;92681.47;4841666;29;20046;-76
2021/07/28 06:13:52;;;;;;;1.67;1.17;;;;;;;16.02;93.39;92668.41;4843853;29;20049;-77
2021/07/28 06:16:18;;;;;;;1.08;0.88;;;;;;;15.98;93.51;92683.34;4859880;29;20048;-77
2021/07/28 06:18:44;;;;;;;0.93;0.82;;;;;;;15.99;94.37;92689.41;4860120;29;20049;-77
2021/07/28 06:21:10;;;;;;;1.65;1.25;;;;;;;15.95;94.21;92686.63;4860132;29;20037;-77
2021/07/28 06:23:36;;;;;;;0.93;0.77;;;;;;;15.94;94.06;92666.59;4859790;29;20061;-77
2021/07/28 06:26:01;;;;;;;1.00;0.80;;;;;;;15.96;93.94;92674.97;4843498;29;20558;-77
2021/07/28 06:28:27;;;;;;;2.28;1.42;;;;;;;15.94;94.00;92671.88;4859857;29;20417;-77
2021/07/28 06:30:54;;;;;;;2.45;1.13;;;;;;;15.98;93.83;92675.41;4840855;29;20045;-77
2021/07/28 06:33:20;;;;;;;0.73;0.73;;;;;;;16.01;93.84;92666.88;4859535;29;20085;-77
2021/07/28 06:35:50;;;;;;;1.20;1.00;;;;;;;16.01;93.65;92666.88;4859930;29;20112;-77
2021/07/28 06:38:17;;;;;;;0.65;0.65;;;;;;;16.05;93.47;92666.25;4843069;29;20034;-77
2021/07/28 06:40:43;;;;;;;0.98;0.85;;;;;;;16.08;93.75;92665.63;4827664;29;20061;-77
2021/07/28 06:43:09;;;;;;;0.85;0.73;;;;;;;16.08;94.06;92665.63;4842247;29;20515;-77
2021/07/28 06:45:35;;;;;;;0.52;0.52;;;;;;;16.05;94.22;92661.72;4857102;29;20037;-76
2021/07/28 06:48:01;;;;;;;1.17;1.05;;;;;;;16.10;94.68;92674.00;4852556;29;20392;-77
2021/07/28 06:50:27;;;;;;;2.83;0.98;;;;;;;16.12;95.32;92685.00;4859675;29;20033;-77
2021/07/28 06:52:52;;;;;;;0.85;0.73;;;;;;;16.11;95.23;92691.41;4860128;29;20052;-77
2021/07/28 06:55:18;;;;;;;1.23;1.13;;;;;;;16.11;95.03;92681.59;4842542;29;20041;-77
2021/07/28 06:57:44;;;;;;;1.27;0.73;;;;;;;16.10;94.75;92679.28;4859717;29;20065;-77
2021/07/28 07:00:10;;;;;;;2.08;0.63;;;;;;;16.10;94.70;92668.72;4858742;29;20029;-77
2021/07/28 07:02:36;;;;;;;0.47;0.47;;;;;;;16.10;94.60;92663.44;4860388;29;20040;-77
2021/07/28 07:05:05;;;;;;;1.08;0.77;;;;;;;16.10;94.51;92664.22;4859927;29;20048;-76
2021/07/28 07:07:32;;;;;;;0.90;0.85;;;;;;;16.10;94.41;92653.66;4843254;29;20041;-76
2021/07/28 07:09:58;;;;;;;0.73;0.73;;;;;;;16.12;94.95;92658.59;4859813;29;20059;-76
2021/07/28 07:12:24;;;;;;;0.60;0.60;;;;;;;16.09;94.52;92667.94;4848208;29;20414;-77
2021/07/28 07:14:50;;;;;;;1.77;1.60;;;;;;;16.08;94.28;92661.13;4850130;29;20017;-77
2021/07/28 07:17:16;;;;;;;1.13;0.73;;;;;;;16.10;93.81;92674.00;4858963;29;20052;-77
2021/07/28 07:19:42;;;;;;;1.95;1.35;;;;;;;16.10;93.68;92689.84;4859478;29;20044;-77
2021/07/28 07:22:09;;;;;;;0.60;0.60;;;;;;;16.07;94.14;92688.59;4859696;29;20057;-77
2021/07/28 07:24:35;;;;;;;2.10;1.55;;;;;;;16.04;93.65;92689.25;4860637;29;20094;-78
2021/07/28 07:27:00;;;;;;;2.08;1.20;;;;;;;16.08;94.11;92694.69;4825949;29;20576;-77
2021/07/28 07:29:26;;;;;;;1.67;1.38;;;;;;;16.08;94.25;92697.31;4853962;29;20124;-77
2021/07/28 07:31:53;;;;;;;2.17;0.63;;;;;;;16.08;93.46;92699.97;4857050;29;20053;-76
2021/07/28 07:34:19;;;;;;;0.50;0.50;;;;;;;16.08;95.14;92698.09;4858851;29;20431;-77
2021/07/28 07:36:44;;;;;;;0.82;0.52;;;;;;;15.99;96.66;92695.47;4859596;29;20130;-78
2021/07/28 07:39:10;;;;;;;0.40;0.40;;;;;;;15.84;97.67;92698.59;4860437;29;20042;-77
2021/07/28 07:41:36;;;;;;;0.40;0.40;;;;;;;15.79;97.49;92685.56;4857027;29;20045;-77
2021/07/28 07:44:02;;;;;;;0.43;0.43;;;;;;;15.77;97.65;92687.75;4849782;29;20045;-77
2021/07/28 07:46:28;;;;;;;0.30;0.30;;;;;;;15.82;97.67;92693.63;4855994;29;20045;-78
2021/07/28 07:48:54;;;;;;;0.20;0.20;;;;;;;15.75;98.29;92703.13;4844222;29;20045;-77
2021/07/28 07:51:20;;;;;;;0.20;0.20;;;;;;;15.65;99.02;92701.53;4841795;29;20156;-77
2021/07/28 07:53:46;;;;;;;0.30;0.30;;;;;;;15.62;98.80;92707.44;4842874;29;20032;-77
2021/07/28 07:56:12;;;;;;;0.20;0.20;;;;;;;15.61;99.15;92705.88;4842175;29;20492;-77
2021/07/28 07:58:38;;;;;;;0.63;0.52;;;;;;;15.58;99.56;92707.28;4856829;29;20050;-76
2021/07/28 08:01:09;;;;;;;1.05;0.80;;;;;;;15.61;99.76;92714.56;4837393;29;20116;-77
2021/07/28 08:03:35;;;;;;;0.68;0.68;;;;;;;15.62;99.73;92716.13;4858735;29;20045;-77
2021/07/28 08:06:01;;;;;;;0.40;0.40;;;;;;;15.65;99.86;92706.03;4858779;29;20073;-77
2021/07/28 08:08:27;;;;;;;0.50;0.50;;;;;;;15.67;99.44;92694.09;4842052;29;20512;-77
2021/07/28 08:10:55;;;;;;;0.40;0.40;;;;;;;15.74;97.16;92691.00;4841111;29;20488;-77
2021/07/28 08:13:21;;;;;;;0.40;0.40;;;;;;;15.74;96.96;92691.00;4856962;29;20102;-77
2021/07/28 08:15:47;;;;;;;0.22;0.22;;;;;;;15.22;96.33;92698.88;4851913;29;20412;-76
2021/07/28 08:18:13;;;;;;;0.20;0.20;;;;;;;14.98;97.95;92702.75;4824687;29;20045;-77
2021/07/28 08:20:38;;;;;;;0.20;0.20;;;;;;;14.81;98.89;92706.09;4840085;29;20226;-77
2021/07/28 08:23:04;;;;;;;0.20;0.20;;;;;;;14.69;99.18;92722.50;4856943;29;20076;-76
2021/07/28 08:25:30;;;;;;;0.28;0.28;;;;;;;14.66;99.56;92722.34;4856988;29;20145;-77
2021/07/28 08:27:55;;;;;;;0.30;0.30;;;;;;;14.70;98.48;92721.44;4841336;29;20041;-77
2021/07/28 08:30:21;;;;;;;0.20;0.20;;;;;;;14.70;98.44;92716.19;4836102;29;20089;-77
2021/07/28 08:32:48;;;;;;;0.30;0.30;;;;;;;14.65;98.39;92723.44;4796452;29;20054;-77
2021/07/28 08:35:14;;;;;;;0.30;0.30;;;;;;;14.75;99.08;92718.66;4796790;29;20492;-77
2021/07/28 08:37:41;;;;;;;0.20;0.20;;;;;;;14.80;99.38;92714.34;4839467;29;20045;-77
2021/07/28 08:40:15;;;;;;;0.30;0.30;;;;;;;14.82;98.84;92710.31;4840031;29;20044;-76
2021/07/28 08:42:44;;;;;;;0.25;0.25;;;;;;;14.86;98.80;92708.63;4839257;29;20046;-76
2021/07/28 08:45:13;;;;;;;0.30;0.30;;;;;;;14.93;98.73;92713.44;4821920;29;20038;-76
2021/07/28 08:47:39;;;;;;;0.32;0.32;;;;;;;14.98;98.66;92719.34;4820240;29;20055;-77
2021/07/28 08:50:13;;;;;;;0.45;0.45;;;;;;;15.07;98.56;92719.34;4828532;29;20042;-77
2021/07/28 08:52:40;;;;;;;0.30;0.30;;;;;;;15.10;98.37;92713.44;4822951;29;20114;-77
2021/07/28 08:55:09;;;;;;;0.40;0.40;;;;;;;15.22;97.00;92726.06;4838556;29;20493;-77
2021/07/28 08:57:36;;;;;;;0.30;0.30;;;;;;;15.39;95.36;92723.41;4796577;29;20043;-77
2021/07/28 09:00:04;;;;;;;0.20;0.20;;;;;;;15.20;96.73;92715.03;4804339;29;20315;-77
2021/07/28 09:02:29;;;;;;;0.30;0.30;;;;;;;15.08;97.51;92723.53;4822478;29;20049;-77
2021/07/28 09:04:55;;;;;;;0.43;0.43;;;;;;;15.11;97.60;92717.66;4824342;29;20038;-77
2021/07/28 09:07:22;;;;;;;0.30;0.30;;;;;;;15.14;96.93;92718.91;4825059;29;20034;-77
2021/07/28 09:09:49;;;;;;;0.30;0.30;;;;;;;15.09;96.67;92714.56;4822989;29;20046;-77
2021/07/28 09:12:15;;;;;;;1.17;0.90;;;;;;;14.97;98.00;92720.44;4822075;29;20046;-77
2021/07/28 09:14:51;;;;;;;0.35;0.35;;;;;;;15.01;97.92;92725.06;4822951;29;20038;-77
2021/07/28 09:17:20;;;;;;;0.20;0.20;;;;;;;15.01;98.37;92717.94;4839175;29;20152;-77
2021/07/28 09:19:48;;;;;;;5.05;1.02;;;;;;;15.09;97.08;92701.38;4822761;29;20060;-77
2021/07/28 09:22:16;;;;;;;0.32;0.32;;;;;;;15.18;96.93;92709.28;4839312;29;20113;-77
2021/07/28 09:24:43;;;;;;;0.45;0.45;;;;;;;15.19;97.31;92711.59;4825849;29;20081;-77
2021/07/28 09:27:40;;;;;;;0.30;0.30;;;;;;;15.15;96.53;92710.69;4843084;29;20041;-77
2021/07/28 09:30:07;;;;;;;0.25;0.25;;;;;;;14.94;97.28;92714.97;4828903;29;20533;-77
2021/07/28 09:32:37;;;;;;;0.30;0.30;;;;;;;14.96;97.10;92704.91;4845981;29;20053;-76
2021/07/28 09:35:03;;;;;;;0.35;0.35;;;;;;;15.00;96.63;92703.22;4860913;29;20046;-76
2021/07/28 09:37:38;;;;;;;0.50;0.50;;;;;;;15.06;95.96;92711.75;4861179;29;20047;-76
2021/07/28 09:40:05;;;;;;;0.60;0.60;;;;;;;15.11;95.28;92711.63;4844419;29;20041;-77
2021/07/28 09:42:31;;;;;;;0.30;0.30;;;;;;;15.15;94.11;92709.88;4859962;29;20101;-77
2021/07/28 09:44:59;;;;;;;0.30;0.30;;;;;;;15.28;94.07;92713.47;4825910;29;20038;-77
2021/07/28 09:47:26;;;;;;;0.30;0.30;;;;;;;15.28;94.59;92708.97;4825884;29;20436;-76
2021/07/28 09:50:01;;;;;;;0.32;0.32;;;;;;;15.30;93.46;92717.34;4826829;29;20447;-78
2021/07/28 09:52:34;;;;;;;0.30;0.30;;;;;;;15.36;93.57;92710.84;4812741;29;20116;-77
2021/07/28 09:55:22;;;;;;;0.40;0.40;;;;;;;15.41;93.53;92720.47;4843368;29;20038;-77
2021/07/28 09:57:59;;;;;;;0.32;0.32;;;;;;;15.42;93.57;92719.38;4826679;29;20090;-77
2021/07/28 10:00:27;;;;;;;0.68;0.65;;;;;;;15.33;94.18;92721.22;4844745;29;20041;-77
2021/07/28 10:02:58;;;;;;;1.10;0.75;;;;;;;15.46;94.89;92730.09;4843122;29;20125;-77
2021/07/28 10:05:25;;;;;;;0.35;0.35;;;;;;;15.49;94.34;92725.00;4826102;29;20072;-77
2021/07/28 10:07:56;;;;;;;7.68;0.68;;;;;;;15.55;94.30;92726.38;4843574;29;20033;-77
2021/07/28 10:10:22;;;;;;;0.50;0.50;;;;;;;15.62;93.78;92717.97;4846237;29;20044;-77
2021/07/28 10:12:49;;;;;;;1.00;0.70;;;;;;;15.69;93.63;92728.84;4861578;29;20459;-77
2021/07/28 10:15:18;;;;;;;0.40;0.40;;;;;;;15.78;94.60;92731.50;4844451;29;20038;-77
2021/07/28 10:17:45;;;;;;;0.35;0.35;;;;;;;15.88;94.52;92725.91;4860496;29;20050;-77
2021/07/28 10:20:13;;;;;;;0.85;0.65;;;;;;;15.91;90.88;92721.88;4843988;29;20038;-77
2021/07/28 10:22:40;;;;;;;0.40;0.40;;;;;;;16.02;90.33;92704.63;4843732;29;20074;-76
2021/07/28 10:25:14;;;;;;;0.25;0.25;;;;;;;16.11;90.68;92702.72;4823948;29;20471;-77
2021/07/28 10:27:44;;;;;;;0.68;0.60;;;;;;;16.10;90.71;92701.19;4827851;29;20453;-77
2021/07/28 10:30:14;;;;;;;0.40;0.40;;;;;;;16.27;90.36;92710.91;4842411;29;20040;-76
2021/07/28 10:32:42;;;;;;;0.32;0.32;;;;;;;16.34;89.88;92708.56;4859093;29;20064;-77
2021/07/28 10:35:17;;;;;;;0.50;0.50;;;;;;;16.38;90.37;92706.84;4842836;29;20037;-77
2021/07/28 10:37:43;;;;;;;0.50;0.50;;;;;;;16.41;90.92;92695.66;4840082;29;20508;-77
2021/07/28 10:40:24;;;;;;;0.50;0.50;;;;;;;16.55;90.40;92689.38;4862550;29;20033;-77
2021/07/28 10:42:49;;;;;;;0.60;0.60;;;;;;;16.65;90.71;92687.16;4832628;29;20048;-77
2021/07/28 10:45:17;;;;;;;0.50;0.50;;;;;;;16.70;91.66;92682.78;4860619;29;20033;-76
2021/07/28 10:47:47;;;;;;;1.85;1.10;;;;;;;16.81;89.35;92690.06;4860916;29;20034;-77
2021/07/28 10:50:21;;;;;;;0.70;0.70;;;;;;;16.82;89.19;92683.69;4860465;29;20037;-77
2021/07/28 10:52:51;;;;;;;1.27;0.60;;;;;;;16.85;89.94;92680.41;4844976;29;20247;-77
2021/07/28 10:55:18;;;;;;;0.63;0.63;;;;;;;16.91;90.24;92677.56;4860499;29;20573;-76
2021/07/28 10:57:52;;;;;;;0.52;0.50;;;;;;;16.94;90.17;92664.47;4860604;29;20496;-77
2021/07/28 11:00:39;;;;;;;3.35;1.48;;;;;;;17.08;89.45;92674.03;4843723;29;20416;-77
2021/07/28 11:03:08;;;;;;;0.30;0.30;;;;;;;17.18;89.03;92674.44;4855920;29;20084;-77
2021/07/28 11:05:48;;;;;;;0.55;0.55;;;;;;;17.30;89.36;92670.31;4860140;29;20043;-77
2021/07/28 11:08:20;;;;;;;0.50;0.50;;;;;;;17.36;89.26;92664.50;4843106;29;20037;-77
2021/07/28 11:10:58;;;;;;;0.77;0.75;;;;;;;17.41;89.63;92666.19;4828203;29;20038;-77
2021/07/28 11:13:27;;;;;;;1.23;0.55;;;;;;;17.48;90.39;92667.19;4858917;29;20041;-77
2021/07/28 11:15:58;;;;;;;1.35;0.98;;;;;;;17.58;89.89;92655.44;4843112;29;20391;-77
2021/07/28 11:18:40;;;;;;;1.10;1.00;;;;;;;17.76;89.25;92660.56;4858812;29;20029;-77
2021/07/28 11:21:17;;;;;;;0.83;0.83;;;;;;;18.02;88.94;92661.13;4858549;29;20034;-76
2021/07/28 11:23:46;;;;;;;1.25;0.95;;;;;;;18.26;85.62;92654.31;4842587;29;20799;-77
2021/07/28 11:26:21;;;;;;;1.20;1.10;;;;;;;18.15;84.30;92653.19;4842538;29;20037;-77
2021/07/28 11:28:49;;;;;;;1.45;1.10;;;;;;;17.85;86.50;92653.34;4856621;29;20551;-76
2021/07/28 11:31:21;;;;;;;1.58;0.98;;;;;;;17.82;84.82;92661.97;4840206;29;20057;-77
2021/07/28 11:33:47;;;;;;;1.08;0.98;;;;;;;17.79;85.59;92654.66;4840694;29;20034;-77
2021/07/28 11:36:16;;;;;;;1.13;0.90;;;;;;;17.76;83.42;92650.00;4839876;29;20408;-77
2021/07/28 11:38:42;;;;;;;0.93;0.73;;;;;;;17.53;86.91;92652.22;4840681;29;20452;-77
2021/07/28 11:41:10;;;;;;;1.25;0.93;;;;;;;17.47;84.51;92659.56;4808632;29;20046;-77
2021/07/28 11:43:41;;;;;;;0.68;0.68;;;;;;;17.47;84.97;92659.56;4840181;29;20463;-77
2021/07/28 11:46:18;;;;;;;1.20;0.93;;;;;;;17.42;86.54;92660.56;4807970;29;20281;-77
2021/07/28 11:48:57;;;;;;;1.33;0.90;;;;;;;17.34;89.33;92642.09;4823586;29;20125;-77
2021/07/28 11:51:26;;;;;;;1.35;0.82;;;;;;;17.41;90.08;92639.72;4808456;29;20084;-76
2021/07/28 11:53:53;;;;;;;0.55;0.55;;;;;;;17.02;91.48;92662.88;4840171;29;20061;-77
2021/07/28 11:56:19;;;;;;;2.42;1.67;;;;;;;17.11;91.75;92679.44;4824673;29;20102;-77
2021/07/28 11:58:50;;;;;;;2.20;1.23;;;;;;;17.39;89.87;92665.72;4839950;29;20409;-77
2021/07/28 12:01:33;;;;;;;1.90;1.30;;;;;;;17.57;89.90;92664.50;4840480;29;20064;-77
2021/07/28 12:04:10;;;;;;;1.70;1.25;;;;;;;17.60;90.17;92678.94;4840142;29;20378;-76
2021/07/28 12:06:41;;;;;;;1.17;1.08;;;;;;;17.58;90.00;92667.91;4832518;29;20104;-76
2021/07/28 12:09:17;;;;;;;4.88;2.67;;;;;;;17.53;89.93;92668.88;4832274;29;20034;-76
2021/07/28 12:11:55;;;;;;;0.63;0.63;;;;;;;17.52;90.52;92677.13;4821890;29;20121;-76
2021/07/28 12:14:28;;;;;;;2.15;1.30;;;;;;;17.51;90.48;92681.66;4839679;29;20056;-76
2021/07/28 12:16:58;;;;;;;0.82;0.73;;;;;;;17.52;90.85;92693.00;4839465;29;20335;-76
2021/07/28 12:19:39;;;;;;;1.45;1.08;;;;;;;17.48;90.87;92693.66;4838880;29;20149;-76
2021/07/28 12:22:06;;;;;;;1.35;0.85;;;;;;;17.46;90.78;92700.38;4823030;29;20120;-76
2021/07/28 12:24:48;;;;;;;1.83;1.63;;;;;;;17.44;90.95;92692.00;4839575;29;20278;-76
2021/07/28 12:27:26;;;;;;;2.60;1.15;;;;;;;17.45;90.80;92701.47;4839019;29;20030;-76
2021/07/28 12:32:34;;;;;;;1.00;0.90;;;;;;;17.43;90.33;92687.81;4836832;29;20531;-76
2021/07/28 12:35:24;;;;;;;1.52;0.82;;;;;;;17.51;90.23;92702.81;4839242;29;20057;-76
2021/07/28 12:38:10;;;;;;;1.60;0.88;;;;;;;17.59;90.16;92707.28;4837227;29;20049;-76
2021/07/28 12:40:49;;;;;;;1.27;1.10;;;;;;;17.65;90.03;92707.84;4838716;29;20026;-76
2021/07/28 12:43:16;;;;;;;1.48;1.17;;;;;;;17.76;90.59;92718.81;4839649;29;20041;-76
2021/07/28 12:45:42;;;;;;;1.55;1.40;;;;;;;17.85;90.08;92722.19;4822882;29;20040;-77
2021/07/28 12:48:09;;;;;;;1.67;1.58;;;;;;;17.94;89.93;92725.53;4805813;29;20038;-79
2021/07/28 12:50:37;;;;;;;1.40;1.30;;;;;;;18.05;89.17;92710.03;4824985;29;20052;-76
2021/07/28 12:53:04;;;;;;;0.93;0.90;;;;;;;18.16;88.68;92705.09;4808625;29;20523;-77
2021/07/28 12:55:33;;;;;;;2.05;1.40;;;;;;;18.25;88.65;92719.03;4832057;29;20037;-76
2021/07/28 12:57:59;;;;;;;2.05;1.50;;;;;;;18.33;88.40;92712.88;4828620;29;20053;-76
2021/07/28 13:00:24;;;;;;;2.97;1.92;;;;;;;18.42;88.24;92710.91;4838928;29;20030;-76
2021/07/28 13:02:50;;;;;;;2.10;1.25;;;;;;;18.52;88.40;92707.81;4801916;29;20049;-77
2021/07/28 13:05:26;;;;;;;3.53;1.73;;;;;;;18.60;87.57;92710.69;4826583;29;20087;-76
2021/07/28 13:10:24;;;;;;;2.75;1.63;;;;;;;18.75;87.07;92715.34;4825189;29;20146;-77
2021/07/28 13:12:49;;;;;;;1.98;1.70;;;;;;;18.67;87.67;92713.56;4840825;29;20110;-77
2021/07/28 13:15:15;;;;;;;0.95;0.88;;;;;;;18.78;88.14;92724.53;4835786;29;20081;-77
2021/07/28 13:17:41;;;;;;;4.47;2.58;;;;;;;18.86;87.72;92721.00;4815082;29;20042;-77
2021/07/28 13:20:07;;;;;;;3.05;1.80;;;;;;;18.96;87.48;92725.88;4837847;29;20042;-77
2021/07/28 13:22:33;;;;;;;1.70;1.33;;;;;;;19.07;87.57;92723.53;4842379;29;20034;-77
2021/07/28 13:24:58;;;;;;;3.10;2.20;;;;;;;19.27;87.25;92722.66;4842740;29;20042;-76
2021/07/28 13:27:24;;;;;;;5.80;2.80;;;;;;;19.57;85.78;92725.03;4841409;29;20075;-77
2021/07/28 13:29:50;;;;;;;1.58;1.23;;;;;;;19.47;85.64;92722.81;4842026;29;20038;-76
2021/07/28 13:32:15;;;;;;;1.70;1.55;;;;;;;19.73;84.98;92731.19;4840302;29;20469;-76
2021/07/28 13:34:41;;;;;;;2.38;1.67;;;;;;;19.94;83.29;92732.91;4842290;29;20061;-77
2021/07/28 13:37:07;;;;;;;3.40;1.48;;;;;;;20.15;81.53;92727.38;4842467;29;20034;-76
2021/07/28 13:39:33;;;;;;;2.47;1.80;;;;;;;20.52;81.84;92719.22;4842319;29;20125;-77
2021/07/28 13:41:59;;;;;;;3.70;2.70;;;;;;;20.97;79.76;92708.16;4825638;29;20133;-76
2021/07/28 13:44:25;;;;;;;3.60;1.95;;;;;;;21.56;77.09;92713.66;4842698;29;20525;-77
2021/07/28 13:46:51;;;;;;;3.55;2.53;;;;;;;22.28;75.68;92709.75;4842362;29;20046;-77
2021/07/28 13:49:16;;;;;;;3.63;2.15;;;;;;;22.57;73.59;92711.78;4842222;29;20401;-77
2021/07/28 13:51:42;;;;;;;2.22;1.02;;;;;;;22.18;76.10;92706.50;4841804;29;20447;-77
2021/07/28 13:54:08;;;;;;;3.63;2.13;;;;;;;21.19;80.53;92722.75;4823855;29;20053;-76
2021/07/28 13:56:33;;;;;;;2.05;1.45;;;;;;;20.69;83.29;92723.44;4809050;29;20571;-76
2021/07/28 13:58:59;;;;;;;3.90;2.95;;;;;;;20.68;83.18;92719.25;4807987;29;20098;-77
2021/07/28 14:01:25;;;;;;;3.28;2.20;;;;;;;20.46;81.31;92717.91;4792185;29;20486;-77
2021/07/28 14:03:50;;;;;;;2.60;1.88;;;;;;;20.51;81.14;92721.13;4791821;29;20675;-77
2021/07/28 14:06:16;;;;;;;3.42;2.30;;;;;;;20.36;83.44;92712.00;4823986;29;20156;-77
2021/07/28 14:08:42;;;;;;;1.25;1.15;;;;;;;19.86;85.36;92715.22;4825814;29;20030;-77
2021/07/28 14:11:08;;;;;;;2.80;2.20;;;;;;;19.70;87.50;92715.94;4841340;29;20078;-77
2021/07/28 14:13:35;;;;;;;4.13;2.60;;;;;;;19.52;86.59;92718.06;4841877;29;20122;-77
2021/07/28 14:16:01;;;;;;;3.05;1.77;;;;;;;19.61;86.73;92727.75;4825440;29;20037;-77
2021/07/28 14:18:26;;;;;;;3.50;1.65;;;;;;;19.71;86.52;92728.09;4842697;29;20053;-76
2021/07/28 14:20:52;;;;;;;1.83;1.48;;;;;;;19.69;85.21;92722.34;4841616;29;20045;-76
2021/07/28 14:23:18;;;;;;;3.20;2.25;;;;;;;19.85;82.17;92719.00;4843604;29;20048;-77
2021/07/28 14:25:44;;;;;;;4.13;1.77;;;;;;;19.88;83.21;92719.09;4845366;29;20030;-78
2021/07/28 14:28:09;;;;;;;4.47;2.03;;;;;;;19.82;82.44;92717.03;4828644;29;20053;-77
2021/07/28 14:30:35;;;;;;;2.75;2.08;;;;;;;19.83;81.91;92724.63;4847553;29;20136;-78
2021/07/28 14:33:01;;;;;;;1.65;1.33;;;;;;;19.88;81.62;92716.44;4853557;29;20133;-78
2021/07/28 14:35:26;;;;;;;3.90;2.00;;;;;;;20.04;82.13;92724.47;4836525;29;20496;-78
2021/07/28 14:37:52;;;;;;;2.40;1.95;;;;;;;20.05;78.53;92715.38;4851328;29;20102;-78
2021/07/28 14:40:18;;;;;;;2.78;1.95;;;;;;;20.01;79.92;92716.38;4847666;29;20480;-77
2021/07/28 14:42:44;;;;;;;3.58;2.40;;;;;;;20.28;82.09;92728.09;4870999;29;20036;-77
2021/07/28 14:45:10;;;;;;;3.10;1.80;;;;;;;20.55;83.12;92727.25;4855294;29;20121;-78
2021/07/28 14:47:36;;;;;;;3.65;2.10;;;;;;;20.44;80.56;92720.16;4872258;29;20064;-79
2021/07/28 14:50:02;;;;;;;2.33;1.52;;;;;;;20.44;81.65;92726.22;4853752;29;20046;-78
2021/07/28 14:52:27;;;;;;;2.67;1.95;;;;;;;20.20;79.61;92718.38;4873028;29;20045;-78
2021/07/28 14:54:53;;;;;;;6.50;2.65;;;;;;;20.63;80.53;92708.88;4872684;29;20041;-78
2021/07/28 14:57:19;;;;;;;3.63;1.60;;;;;;;20.64;82.27;92700.53;4841511;29;20053;-79
2021/07/28 14:59:45;;;;;;;1.55;1.25;;;;;;;20.52;83.02;92701.38;4871690;29;20037;-78
2021/07/28 15:02:15;;;;;;;2.95;1.77;;;;;;;20.78;82.38;92702.75;4840650;29;20041;-78
2021/07/28 15:04:41;;;;;;;2.40;1.70;;;;;;;20.98;80.46;92701.75;4856717;29;20082;-77
2021/07/28 15:07:07;;;;;;;4.13;2.53;;;;;;;20.93;77.72;92694.00;4874205;29;20038;-78
2021/07/28 15:09:34;;;;;;;3.75;2.40;;;;;;;21.20;79.06;92696.88;4856510;29;20041;-78